sensor_id;sensor_type;location;lat;lon;timestamp;P1;durP1;ratioP1;P2;durP2;ratioP2
23159;SDS011;11748;50.844;4.396;2024-03-29T00:00:35;3.50;;;0.90;;
23159;SDS011;11748;50.844;4.396;2024-03-29T00:03:01;4.82;;;1.00;;
23159;SDS011;11748;50.844;4.396;2024-03-29T00:05:26;2.30;;;0.77;;
23159;SDS011;11748;50.844;4.396;2024-03-29T00:07:52;3.90;;;1.20;;
23159;SDS011;11748;50.844;4.396;2024-03-29T00:10:18;4.63;;;0.90;;
23159;SDS011;11748;50.844;4.396;2024-03-29T00:12:43;6.40;;;1.13;;
23159;SDS011;11748;50.844;4.396;2024-03-29T00:15:09;5.03;;;1.30;;
23159;SDS011;11748;50.844;4.396;2024-03-29T00:17:35;8.70;;;1.60;;
23159;SDS011;11748;50.844;4.396;2024-03-29T00:20:01;3.38;;;0.80;;
23159;SDS011;11748;50.844;4.396;2024-03-29T00:22:28;2.42;;;0.80;;
23159;SDS011;11748;50.844;4.396;2024-03-29T00:24:53;2.78;;;0.90;;
23159;SDS011;11748;50.844;4.396;2024-03-29T00:27:20;5.43;;;0.90;;
23159;SDS011;11748;50.844;4.396;2024-03-29T00:29:47;4.10;;;0.90;;
23159;SDS011;11748;50.844;4.396;2024-03-29T00:32:17;2.47;;;0.90;;
23159;SDS011;11748;50.844;4.396;2024-03-29T00:34:43;3.40;;;0.95;;
23159;SDS011;11748;50.844;4.396;2024-03-29T00:37:10;2.70;;;1.05;;
23159;SDS011;11748;50.844;4.396;2024-03-29T00:39:36;4.45;;;0.90;;
23159;SDS011;11748;50.844;4.396;2024-03-29T00:42:02;5.82;;;0.98;;
23159;SDS011;11748;50.844;4.396;2024-03-29T00:44:30;1.73;;;0.68;;
23159;SDS011;11748;50.844;4.396;2024-03-29T00:46:56;2.80;;;1.00;;
23159;SDS011;11748;50.844;4.396;2024-03-29T00:49:22;3.60;;;1.00;;
23159;SDS011;11748;50.844;4.396;2024-03-29T00:51:47;2.92;;;0.90;;
23159;SDS011;11748;50.844;4.396;2024-03-29T00:54:13;2.70;;;1.00;;
23159;SDS011;11748;50.844;4.396;2024-03-29T00:56:39;4.78;;;1.30;;
23159;SDS011;11748;50.844;4.396;2024-03-29T00:59:05;5.32;;;0.90;;
23159;SDS011;11748;50.844;4.396;2024-03-29T01:01:31;4.07;;;0.70;;
23159;SDS011;11748;50.844;4.396;2024-03-29T01:03:57;4.93;;;1.02;;
23159;SDS011;11748;50.844;4.396;2024-03-29T01:06:24;4.75;;;1.00;;
23159;SDS011;11748;50.844;4.396;2024-03-29T01:08:49;3.22;;;0.90;;
23159;SDS011;11748;50.844;4.396;2024-03-29T01:11:16;4.60;;;0.90;;
23159;SDS011;11748;50.844;4.396;2024-03-29T01:13:41;5.28;;;0.88;;
23159;SDS011;11748;50.844;4.396;2024-03-29T01:16:08;3.67;;;0.90;;
23159;SDS011;11748;50.844;4.396;2024-03-29T01:18:33;4.03;;;0.85;;
23159;SDS011;11748;50.844;4.396;2024-03-29T01:20:59;6.80;;;0.95;;
23159;SDS011;11748;50.844;4.396;2024-03-29T01:23:26;3.00;;;1.00;;
23159;SDS011;11748;50.844;4.396;2024-03-29T01:25:51;3.35;;;0.63;;
23159;SDS011;11748;50.844;4.396;2024-03-29T01:28:18;4.00;;;0.85;;
23159;SDS011;11748;50.844;4.396;2024-03-29T01:30:51;3.00;;;0.80;;
23159;SDS011;11748;50.844;4.396;2024-03-29T01:33:17;1.98;;;0.80;;
23159;SDS011;11748;50.844;4.396;2024-03-29T01:35:43;4.97;;;1.45;;
23159;SDS011;11748;50.844;4.396;2024-03-29T01:38:09;4.20;;;0.90;;
23159;SDS011;11748;50.844;4.396;2024-03-29T01:40:34;2.97;;;1.10;;
23159;SDS011;11748;50.844;4.396;2024-03-29T01:43:01;3.03;;;0.70;;
23159;SDS011;11748;50.844;4.396;2024-03-29T01:45:26;1.98;;;0.50;;
23159;SDS011;11748;50.844;4.396;2024-03-29T01:47:53;2.75;;;0.68;;
23159;SDS011;11748;50.844;4.396;2024-03-29T01:50:19;3.17;;;0.80;;
23159;SDS011;11748;50.844;4.396;2024-03-29T01:52:45;1.83;;;0.60;;
23159;SDS011;11748;50.844;4.396;2024-03-29T01:55:12;2.13;;;0.70;;
23159;SDS011;11748;50.844;4.396;2024-03-29T01:57:38;1.90;;;0.63;;
23159;SDS011;11748;50.844;4.396;2024-03-29T02:00:05;1.75;;;0.52;;
23159;SDS011;11748;50.844;4.396;2024-03-29T02:02:32;1.08;;;0.30;;
23159;SDS011;11748;50.844;4.396;2024-03-29T02:04:58;2.17;;;0.40;;
23159;SDS011;11748;50.844;4.396;2024-03-29T02:07:25;1.67;;;0.40;;
23159;SDS011;11748;50.844;4.396;2024-03-29T02:09:51;2.45;;;0.45;;
23159;SDS011;11748;50.844;4.396;2024-03-29T02:12:16;1.48;;;0.50;;
23159;SDS011;11748;50.844;4.396;2024-03-29T02:14:42;1.20;;;0.40;;
23159;SDS011;11748;50.844;4.396;2024-03-29T02:17:09;2.30;;;0.40;;
23159;SDS011;11748;50.844;4.396;2024-03-29T02:19:34;0.75;;;0.35;;
23159;SDS011;11748;50.844;4.396;2024-03-29T02:22:00;0.30;;;0.30;;
23159;SDS011;11748;50.844;4.396;2024-03-29T02:24:30;0.73;;;0.30;;
23159;SDS011;11748;50.844;4.396;2024-03-29T02:26:56;1.13;;;0.60;;
23159;SDS011;11748;50.844;4.396;2024-03-29T02:29:23;1.27;;;0.50;;
23159;SDS011;11748;50.844;4.396;2024-03-29T02:31:49;0.63;;;0.40;;
23159;SDS011;11748;50.844;4.396;2024-03-29T02:34:15;1.52;;;0.70;;
23159;SDS011;11748;50.844;4.396;2024-03-29T02:36:42;1.92;;;0.50;;
23159;SDS011;11748;50.844;4.396;2024-03-29T02:39:11;2.20;;;0.50;;
23159;SDS011;11748;50.844;4.396;2024-03-29T02:41:37;2.38;;;0.40;;
23159;SDS011;11748;50.844;4.396;2024-03-29T02:44:03;2.38;;;0.68;;
23159;SDS011;11748;50.844;4.396;2024-03-29T02:46:29;2.17;;;0.45;;
23159;SDS011;11748;50.844;4.396;2024-03-29T02:48:54;1.55;;;0.60;;
23159;SDS011;11748;50.844;4.396;2024-03-29T02:51:20;2.28;;;0.60;;
23159;SDS011;11748;50.844;4.396;2024-03-29T02:53:46;2.55;;;0.43;;
23159;SDS011;11748;50.844;4.396;2024-03-29T02:56:12;2.60;;;0.70;;
23159;SDS011;11748;50.844;4.396;2024-03-29T02:58:43;2.50;;;0.90;;
23159;SDS011;11748;50.844;4.396;2024-03-29T03:01:09;2.33;;;0.50;;
23159;SDS011;11748;50.844;4.396;2024-03-29T03:03:35;2.63;;;0.60;;
23159;SDS011;11748;50.844;4.396;2024-03-29T03:06:02;2.20;;;0.60;;
23159;SDS011;11748;50.844;4.396;2024-03-29T03:08:28;2.20;;;0.85;;
23159;SDS011;11748;50.844;4.396;2024-03-29T03:11:15;3.53;;;0.88;;
23159;SDS011;11748;50.844;4.396;2024-03-29T03:13:43;1.63;;;0.57;;
23159;SDS011;11748;50.844;4.396;2024-03-29T03:16:09;3.42;;;0.80;;
23159;SDS011;11748;50.844;4.396;2024-03-29T03:18:34;2.20;;;0.90;;
23159;SDS011;11748;50.844;4.396;2024-03-29T03:21:01;2.97;;;0.88;;
23159;SDS011;11748;50.844;4.396;2024-03-29T03:23:27;1.83;;;0.70;;
23159;SDS011;11748;50.844;4.396;2024-03-29T03:26:00;3.35;;;0.60;;
23159;SDS011;11748;50.844;4.396;2024-03-29T03:28:30;2.85;;;0.80;;
23159;SDS011;11748;50.844;4.396;2024-03-29T03:30:55;2.90;;;0.65;;
23159;SDS011;11748;50.844;4.396;2024-03-29T03:33:21;2.25;;;0.77;;
23159;SDS011;11748;50.844;4.396;2024-03-29T03:35:47;4.32;;;1.00;;
23159;SDS011;11748;50.844;4.396;2024-03-29T03:38:13;2.38;;;0.73;;
23159;SDS011;11748;50.844;4.396;2024-03-29T03:40:40;4.10;;;0.80;;
23159;SDS011;11748;50.844;4.396;2024-03-29T03:43:06;4.03;;;1.48;;
23159;SDS011;11748;50.844;4.396;2024-03-29T03:45:39;2.25;;;0.60;;
23159;SDS011;11748;50.844;4.396;2024-03-29T03:48:08;3.50;;;1.20;;
23159;SDS011;11748;50.844;4.396;2024-03-29T03:50:36;1.88;;;0.80;;
23159;SDS011;11748;50.844;4.396;2024-03-29T03:53:02;3.60;;;0.85;;
23159;SDS011;11748;50.844;4.396;2024-03-29T03:55:28;2.25;;;0.80;;
23159;SDS011;11748;50.844;4.396;2024-03-29T03:57:54;3.75;;;0.80;;
23159;SDS011;11748;50.844;4.396;2024-03-29T04:00:20;1.20;;;0.47;;
23159;SDS011;11748;50.844;4.396;2024-03-29T04:02:47;2.30;;;0.68;;
23159;SDS011;11748;50.844;4.396;2024-03-29T04:05:17;2.60;;;0.80;;
23159;SDS011;11748;50.844;4.396;2024-03-29T04:07:46;2.58;;;0.80;;
23159;SDS011;11748;50.844;4.396;2024-03-29T04:10:12;1.63;;;0.50;;
23159;SDS011;11748;50.844;4.396;2024-03-29T04:12:38;3.25;;;0.70;;
23159;SDS011;11748;50.844;4.396;2024-03-29T04:15:04;0.65;;;0.45;;
23159;SDS011;11748;50.844;4.396;2024-03-29T04:17:30;1.77;;;0.55;;
23159;SDS011;11748;50.844;4.396;2024-03-29T04:19:57;2.97;;;0.88;;
23159;SDS011;11748;50.844;4.396;2024-03-29T04:22:28;1.58;;;0.60;;
23159;SDS011;11748;50.844;4.396;2024-03-29T04:24:54;2.63;;;0.70;;
23159;SDS011;11748;50.844;4.396;2024-03-29T04:27:20;0.95;;;0.70;;
23159;SDS011;11748;50.844;4.396;2024-03-29T04:29:46;2.50;;;0.80;;
23159;SDS011;11748;50.844;4.396;2024-03-29T04:32:11;2.20;;;0.80;;
23159;SDS011;11748;50.844;4.396;2024-03-29T04:34:38;1.80;;;0.95;;
23159;SDS011;11748;50.844;4.396;2024-03-29T04:37:03;3.47;;;1.00;;
23159;SDS011;11748;50.844;4.396;2024-03-29T04:39:29;3.70;;;0.80;;
23159;SDS011;11748;50.844;4.396;2024-03-29T04:41:55;2.83;;;0.77;;
23159;SDS011;11748;50.844;4.396;2024-03-29T04:44:27;1.10;;;0.60;;
23159;SDS011;11748;50.844;4.396;2024-03-29T04:46:53;2.50;;;0.70;;
23159;SDS011;11748;50.844;4.396;2024-03-29T04:49:21;3.58;;;0.65;;
23159;SDS011;11748;50.844;4.396;2024-03-29T04:51:54;0.73;;;0.50;;
23159;SDS011;11748;50.844;4.396;2024-03-29T04:54:19;1.77;;;0.70;;
23159;SDS011;11748;50.844;4.396;2024-03-29T04:56:45;1.27;;;0.57;;
23159;SDS011;11748;50.844;4.396;2024-03-29T04:59:11;1.65;;;0.70;;
23159;SDS011;11748;50.844;4.396;2024-03-29T05:01:36;1.48;;;0.50;;
23159;SDS011;11748;50.844;4.396;2024-03-29T05:04:02;3.20;;;0.82;;
23159;SDS011;11748;50.844;4.396;2024-03-29T05:06:29;0.68;;;0.60;;
23159;SDS011;11748;50.844;4.396;2024-03-29T05:08:56;1.00;;;0.50;;
23159;SDS011;11748;50.844;4.396;2024-03-29T05:11:21;1.48;;;0.60;;
23159;SDS011;11748;50.844;4.396;2024-03-29T05:13:47;1.63;;;0.43;;
23159;SDS011;11748;50.844;4.396;2024-03-29T05:16:13;1.50;;;0.60;;
23159;SDS011;11748;50.844;4.396;2024-03-29T05:18:39;2.35;;;0.68;;
23159;SDS011;11748;50.844;4.396;2024-03-29T05:21:05;2.90;;;0.73;;
23159;SDS011;11748;50.844;4.396;2024-03-29T05:23:31;2.35;;;0.70;;
23159;SDS011;11748;50.844;4.396;2024-03-29T05:25:57;1.25;;;0.70;;
23159;SDS011;11748;50.844;4.396;2024-03-29T05:28:23;1.65;;;0.68;;
23159;SDS011;11748;50.844;4.396;2024-03-29T05:30:49;1.30;;;0.60;;
23159;SDS011;11748;50.844;4.396;2024-03-29T05:33:14;5.18;;;0.82;;
23159;SDS011;11748;50.844;4.396;2024-03-29T05:35:41;2.58;;;1.13;;
23159;SDS011;11748;50.844;4.396;2024-03-29T05:38:06;0.68;;;0.60;;
23159;SDS011;11748;50.844;4.396;2024-03-29T05:43:30;1.25;;;0.65;;
23159;SDS011;11748;50.844;4.396;2024-03-29T05:45:56;2.75;;;0.70;;
23159;SDS011;11748;50.844;4.396;2024-03-29T05:48:22;3.30;;;0.98;;
23159;SDS011;11748;50.844;4.396;2024-03-29T05:50:48;0.95;;;0.50;;
23159;SDS011;11748;50.844;4.396;2024-03-29T05:53:14;2.47;;;0.80;;
23159;SDS011;11748;50.844;4.396;2024-03-29T05:55:40;2.83;;;0.85;;
23159;SDS011;11748;50.844;4.396;2024-03-29T05:58:06;2.22;;;0.60;;
23159;SDS011;11748;50.844;4.396;2024-03-29T06:00:33;0.95;;;0.70;;
23159;SDS011;11748;50.844;4.396;2024-03-29T06:02:59;5.20;;;1.10;;
23159;SDS011;11748;50.844;4.396;2024-03-29T06:05:29;2.05;;;0.93;;
23159;SDS011;11748;50.844;4.396;2024-03-29T06:07:54;1.88;;;1.00;;
23159;SDS011;11748;50.844;4.396;2024-03-29T06:10:20;3.05;;;0.73;;
23159;SDS011;11748;50.844;4.396;2024-03-29T06:12:46;3.53;;;0.90;;
23159;SDS011;11748;50.844;4.396;2024-03-29T06:15:12;2.20;;;0.98;;
23159;SDS011;11748;50.844;4.396;2024-03-29T06:17:56;4.20;;;1.07;;
23159;SDS011;11748;50.844;4.396;2024-03-29T06:20:23;2.72;;;1.00;;
23159;SDS011;11748;50.844;4.396;2024-03-29T06:22:49;2.03;;;1.10;;
23159;SDS011;11748;50.844;4.396;2024-03-29T06:25:15;2.30;;;0.93;;
23159;SDS011;11748;50.844;4.396;2024-03-29T06:27:41;4.28;;;1.35;;
23159;SDS011;11748;50.844;4.396;2024-03-29T06:30:13;2.25;;;1.15;;
23159;SDS011;11748;50.844;4.396;2024-03-29T06:32:40;3.58;;;1.05;;
23159;SDS011;11748;50.844;4.396;2024-03-29T06:35:06;3.38;;;1.48;;
23159;SDS011;11748;50.844;4.396;2024-03-29T06:37:32;7.05;;;1.40;;
23159;SDS011;11748;50.844;4.396;2024-03-29T06:39:58;2.75;;;1.13;;
23159;SDS011;11748;50.844;4.396;2024-03-29T06:42:24;2.00;;;1.33;;
23159;SDS011;11748;50.844;4.396;2024-03-29T06:44:50;3.65;;;1.40;;
23159;SDS011;11748;50.844;4.396;2024-03-29T06:47:17;2.92;;;1.42;;
23159;SDS011;11748;50.844;4.396;2024-03-29T06:49:43;3.90;;;1.33;;
23159;SDS011;11748;50.844;4.396;2024-03-29T06:52:09;2.55;;;1.20;;
23159;SDS011;11748;50.844;4.396;2024-03-29T06:54:35;2.78;;;1.17;;
23159;SDS011;11748;50.844;4.396;2024-03-29T06:57:01;2.72;;;1.13;;
23159;SDS011;11748;50.844;4.396;2024-03-29T06:59:28;4.00;;;1.50;;
23159;SDS011;11748;50.844;4.396;2024-03-29T07:01:54;6.72;;;1.80;;
23159;SDS011;11748;50.844;4.396;2024-03-29T07:04:20;3.35;;;1.10;;
23159;SDS011;11748;50.844;4.396;2024-03-29T07:06:50;3.92;;;1.45;;
23159;SDS011;11748;50.844;4.396;2024-03-29T07:09:20;3.53;;;1.63;;
23159;SDS011;11748;50.844;4.396;2024-03-29T07:11:47;5.50;;;1.10;;
23159;SDS011;11748;50.844;4.396;2024-03-29T07:14:15;2.60;;;1.58;;
23159;SDS011;11748;50.844;4.396;2024-03-29T07:16:42;4.05;;;1.60;;
23159;SDS011;11748;50.844;4.396;2024-03-29T07:19:08;4.75;;;1.55;;
23159;SDS011;11748;50.844;4.396;2024-03-29T07:21:37;4.78;;;1.90;;
23159;SDS011;11748;50.844;4.396;2024-03-29T07:24:10;3.53;;;1.42;;
23159;SDS011;11748;50.844;4.396;2024-03-29T07:26:36;2.95;;;1.40;;
23159;SDS011;11748;50.844;4.396;2024-03-29T07:29:02;4.55;;;1.40;;
23159;SDS011;11748;50.844;4.396;2024-03-29T07:31:30;4.55;;;1.38;;
23159;SDS011;11748;50.844;4.396;2024-03-29T07:33:56;5.18;;;1.58;;
23159;SDS011;11748;50.844;4.396;2024-03-29T07:36:22;5.32;;;1.25;;
23159;SDS011;11748;50.844;4.396;2024-03-29T07:38:50;4.38;;;1.52;;
23159;SDS011;11748;50.844;4.396;2024-03-29T07:41:15;2.20;;;1.35;;
23159;SDS011;11748;50.844;4.396;2024-03-29T07:43:51;3.33;;;1.42;;
23159;SDS011;11748;50.844;4.396;2024-03-29T07:46:33;4.25;;;1.50;;
23159;SDS011;11748;50.844;4.396;2024-03-29T07:49:00;3.05;;;1.48;;
23159;SDS011;11748;50.844;4.396;2024-03-29T07:51:26;4.70;;;1.67;;
23159;SDS011;11748;50.844;4.396;2024-03-29T07:53:53;3.97;;;1.70;;
23159;SDS011;11748;50.844;4.396;2024-03-29T07:56:19;3.90;;;1.58;;
23159;SDS011;11748;50.844;4.396;2024-03-29T07:58:49;3.05;;;1.50;;
23159;SDS011;11748;50.844;4.396;2024-03-29T08:01:25;6.97;;;1.50;;
23159;SDS011;11748;50.844;4.396;2024-03-29T08:03:51;4.00;;;1.60;;
23159;SDS011;11748;50.844;4.396;2024-03-29T08:06:18;3.70;;;1.50;;
23159;SDS011;11748;50.844;4.396;2024-03-29T08:08:45;4.18;;;1.55;;
23159;SDS011;11748;50.844;4.396;2024-03-29T08:11:11;3.72;;;1.52;;
23159;SDS011;11748;50.844;4.396;2024-03-29T08:13:37;4.07;;;1.77;;
23159;SDS011;11748;50.844;4.396;2024-03-29T08:16:04;3.10;;;1.85;;
23159;SDS011;11748;50.844;4.396;2024-03-29T08:18:31;3.60;;;1.70;;
23159;SDS011;11748;50.844;4.396;2024-03-29T08:20:58;4.43;;;1.40;;
23159;SDS011;11748;50.844;4.396;2024-03-29T08:23:24;5.00;;;1.60;;
23159;SDS011;11748;50.844;4.396;2024-03-29T08:25:50;4.50;;;1.50;;
23159;SDS011;11748;50.844;4.396;2024-03-29T08:28:16;4.00;;;1.60;;
23159;SDS011;11748;50.844;4.396;2024-03-29T08:30:43;3.30;;;1.40;;
23159;SDS011;11748;50.844;4.396;2024-03-29T08:33:09;6.03;;;2.03;;
23159;SDS011;11748;50.844;4.396;2024-03-29T08:35:34;5.07;;;1.77;;
23159;SDS011;11748;50.844;4.396;2024-03-29T08:38:00;3.90;;;1.77;;
23159;SDS011;11748;50.844;4.396;2024-03-29T08:40:27;5.30;;;2.25;;
23159;SDS011;11748;50.844;4.396;2024-03-29T08:42:57;4.40;;;1.40;;
23159;SDS011;11748;50.844;4.396;2024-03-29T08:45:22;1.70;;;1.40;;
23159;SDS011;11748;50.844;4.396;2024-03-29T08:47:48;3.00;;;1.50;;
23159;SDS011;11748;50.844;4.396;2024-03-29T08:50:14;6.00;;;1.60;;
23159;SDS011;11748;50.844;4.396;2024-03-29T08:52:40;3.30;;;1.50;;
23159;SDS011;11748;50.844;4.396;2024-03-29T08:55:06;4.10;;;1.48;;
23159;SDS011;11748;50.844;4.396;2024-03-29T08:57:32;4.40;;;1.67;;
23159;SDS011;11748;50.844;4.396;2024-03-29T08:59:58;5.15;;;2.20;;
23159;SDS011;11748;50.844;4.396;2024-03-29T09:02:24;3.38;;;1.50;;
23159;SDS011;11748;50.844;4.396;2024-03-29T09:04:50;1.83;;;1.10;;
23159;SDS011;11748;50.844;4.396;2024-03-29T09:07:15;2.65;;;1.33;;
23159;SDS011;11748;50.844;4.396;2024-03-29T09:09:41;2.83;;;1.10;;
23159;SDS011;11748;50.844;4.396;2024-03-29T09:12:07;3.40;;;1.20;;
23159;SDS011;11748;50.844;4.396;2024-03-29T09:14:34;1.55;;;0.98;;
23159;SDS011;11748;50.844;4.396;2024-03-29T09:17:00;4.45;;;1.13;;
23159;SDS011;11748;50.844;4.396;2024-03-29T09:19:31;1.27;;;0.80;;
23159;SDS011;11748;50.844;4.396;2024-03-29T09:21:57;3.40;;;0.90;;
23159;SDS011;11748;50.844;4.396;2024-03-29T09:24:23;3.05;;;0.80;;
23159;SDS011;11748;50.844;4.396;2024-03-29T09:26:51;1.38;;;0.85;;
23159;SDS011;11748;50.844;4.396;2024-03-29T09:29:17;4.05;;;0.90;;
23159;SDS011;11748;50.844;4.396;2024-03-29T09:31:45;1.40;;;0.80;;
23159;SDS011;11748;50.844;4.396;2024-03-29T09:34:11;1.00;;;0.82;;
23159;SDS011;11748;50.844;4.396;2024-03-29T09:36:37;1.70;;;0.70;;
23159;SDS011;11748;50.844;4.396;2024-03-29T09:39:03;4.60;;;1.05;;
23159;SDS011;11748;50.844;4.396;2024-03-29T09:41:33;1.70;;;0.80;;
23159;SDS011;11748;50.844;4.396;2024-03-29T09:44:04;1.50;;;1.00;;
23159;SDS011;11748;50.844;4.396;2024-03-29T09:46:31;2.60;;;1.05;;
23159;SDS011;11748;50.844;4.396;2024-03-29T09:48:58;1.80;;;0.90;;
23159;SDS011;11748;50.844;4.396;2024-03-29T09:51:28;1.55;;;0.90;;
23159;SDS011;11748;50.844;4.396;2024-03-29T09:53:55;2.25;;;1.08;;
23159;SDS011;11748;50.844;4.396;2024-03-29T09:56:25;1.30;;;0.85;;
23159;SDS011;11748;50.844;4.396;2024-03-29T09:58:51;2.67;;;0.95;;
23159;SDS011;11748;50.844;4.396;2024-03-29T10:01:17;3.95;;;0.98;;
23159;SDS011;11748;50.844;4.396;2024-03-29T10:03:44;3.90;;;0.80;;
23159;SDS011;11748;50.844;4.396;2024-03-29T10:06:13;1.27;;;0.68;;
23159;SDS011;11748;50.844;4.396;2024-03-29T10:08:40;1.60;;;0.90;;
23159;SDS011;11748;50.844;4.396;2024-03-29T10:11:06;3.25;;;1.10;;
23159;SDS011;11748;50.844;4.396;2024-03-29T10:13:32;1.17;;;0.90;;
23159;SDS011;11748;50.844;4.396;2024-03-29T10:15:59;2.17;;;1.13;;
23159;SDS011;11748;50.844;4.396;2024-03-29T10:18:28;4.97;;;1.23;;
23159;SDS011;11748;50.844;4.396;2024-03-29T10:21:01;2.03;;;1.10;;
23159;SDS011;11748;50.844;4.396;2024-03-29T10:23:28;1.83;;;1.10;;
23159;SDS011;11748;50.844;4.396;2024-03-29T10:25:54;1.55;;;0.90;;
23159;SDS011;11748;50.844;4.396;2024-03-29T10:28:20;3.55;;;1.25;;
23159;SDS011;11748;50.844;4.396;2024-03-29T10:30:46;1.27;;;1.17;;
23159;SDS011;11748;50.844;4.396;2024-03-29T10:33:13;2.00;;;1.10;;
23159;SDS011;11748;50.844;4.396;2024-03-29T10:35:44;3.05;;;1.10;;
23159;SDS011;11748;50.844;4.396;2024-03-29T10:38:10;1.52;;;1.08;;
23159;SDS011;11748;50.844;4.396;2024-03-29T10:40:40;1.75;;;1.02;;
23159;SDS011;11748;50.844;4.396;2024-03-29T10:43:10;1.65;;;1.02;;
23159;SDS011;11748;50.844;4.396;2024-03-29T10:45:42;1.67;;;0.98;;
23159;SDS011;11748;50.844;4.396;2024-03-29T10:48:08;3.28;;;1.10;;
23159;SDS011;11748;50.844;4.396;2024-03-29T10:50:35;2.30;;;1.00;;
23159;SDS011;11748;50.844;4.396;2024-03-29T10:53:02;1.88;;;0.88;;
23159;SDS011;11748;50.844;4.396;2024-03-29T10:55:34;1.90;;;0.98;;
23159;SDS011;11748;50.844;4.396;2024-03-29T10:58:01;1.88;;;1.52;;
23159;SDS011;11748;50.844;4.396;2024-03-29T11:00:28;2.33;;;1.20;;
23159;SDS011;11748;50.844;4.396;2024-03-29T11:03:20;2.88;;;1.27;;
23159;SDS011;11748;50.844;4.396;2024-03-29T11:05:47;1.70;;;1.10;;
23159;SDS011;11748;50.844;4.396;2024-03-29T11:08:23;3.38;;;1.42;;
23159;SDS011;11748;50.844;4.396;2024-03-29T11:10:53;2.95;;;1.40;;
23159;SDS011;11748;50.844;4.396;2024-03-29T11:13:25;2.38;;;1.20;;
23159;SDS011;11748;50.844;4.396;2024-03-29T11:16:10;2.05;;;1.08;;
23159;SDS011;11748;50.844;4.396;2024-03-29T11:18:37;1.63;;;1.48;;
23159;SDS011;11748;50.844;4.396;2024-03-29T11:21:03;1.23;;;0.90;;
23159;SDS011;11748;50.844;4.396;2024-03-29T11:23:34;2.10;;;0.90;;
23159;SDS011;11748;50.844;4.396;2024-03-29T11:26:01;2.08;;;0.93;;
23159;SDS011;11748;50.844;4.396;2024-03-29T11:28:28;2.70;;;0.90;;
23159;SDS011;11748;50.844;4.396;2024-03-29T11:31:05;1.98;;;0.73;;
23159;SDS011;11748;50.844;4.396;2024-03-29T11:33:35;1.65;;;0.68;;
23159;SDS011;11748;50.844;4.396;2024-03-29T11:36:20;2.97;;;0.70;;
23159;SDS011;11748;50.844;4.396;2024-03-29T11:38:49;2.50;;;0.75;;
23159;SDS011;11748;50.844;4.396;2024-03-29T11:41:21;1.50;;;0.60;;
23159;SDS011;11748;50.844;4.396;2024-03-29T11:43:52;1.55;;;0.47;;
23159;SDS011;11748;50.844;4.396;2024-03-29T11:46:22;2.00;;;0.52;;
23159;SDS011;11748;50.844;4.396;2024-03-29T11:48:48;1.58;;;1.00;;
23159;SDS011;11748;50.844;4.396;2024-03-29T11:51:17;1.60;;;0.63;;
23159;SDS011;11748;50.844;4.396;2024-03-29T11:53:45;2.22;;;0.80;;
23159;SDS011;11748;50.844;4.396;2024-03-29T11:56:11;1.23;;;0.60;;
23159;SDS011;11748;50.844;4.396;2024-03-29T11:58:38;1.35;;;0.40;;
23159;SDS011;11748;50.844;4.396;2024-03-29T12:01:04;1.23;;;0.60;;
23159;SDS011;11748;50.844;4.396;2024-03-29T12:03:31;1.27;;;0.60;;
23159;SDS011;11748;50.844;4.396;2024-03-29T12:05:58;2.55;;;1.75;;
23159;SDS011;11748;50.844;4.396;2024-03-29T12:08:31;5.10;;;2.10;;
23159;SDS011;11748;50.844;4.396;2024-03-29T12:10:58;10.02;;;5.85;;
23159;SDS011;11748;50.844;4.396;2024-03-29T12:13:24;9.63;;;1.98;;
23159;SDS011;11748;50.844;4.396;2024-03-29T12:15:52;4.80;;;1.02;;
23159;SDS011;11748;50.844;4.396;2024-03-29T12:18:19;3.53;;;1.00;;
23159;SDS011;11748;50.844;4.396;2024-03-29T12:20:47;1.85;;;1.10;;
23159;SDS011;11748;50.844;4.396;2024-03-29T12:23:18;1.40;;;1.20;;
23159;SDS011;11748;50.844;4.396;2024-03-29T12:25:47;3.78;;;1.45;;
23159;SDS011;11748;50.844;4.396;2024-03-29T12:28:15;3.15;;;1.77;;
23159;SDS011;11748;50.844;4.396;2024-03-29T12:30:42;2.30;;;1.42;;
23159;SDS011;11748;50.844;4.396;2024-03-29T12:35:46;1.43;;;1.20;;
23159;SDS011;11748;50.844;4.396;2024-03-29T12:38:18;2.20;;;1.15;;
23159;SDS011;11748;50.844;4.396;2024-03-29T12:40:45;3.40;;;1.08;;
23159;SDS011;11748;50.844;4.396;2024-03-29T12:43:19;2.55;;;0.90;;
23159;SDS011;11748;50.844;4.396;2024-03-29T12:45:46;1.23;;;0.82;;
23159;SDS011;11748;50.844;4.396;2024-03-29T12:48:17;2.03;;;0.90;;
23159;SDS011;11748;50.844;4.396;2024-03-29T12:50:45;1.75;;;0.80;;
23159;SDS011;11748;50.844;4.396;2024-03-29T12:53:12;1.15;;;0.70;;
23159;SDS011;11748;50.844;4.396;2024-03-29T12:55:39;0.73;;;0.70;;
23159;SDS011;11748;50.844;4.396;2024-03-29T12:58:09;1.55;;;0.60;;
23159;SDS011;11748;50.844;4.396;2024-03-29T13:00:36;1.92;;;0.70;;
23159;SDS011;11748;50.844;4.396;2024-03-29T13:03:03;4.63;;;0.70;;
23159;SDS011;11748;50.844;4.396;2024-03-29T13:05:29;3.20;;;0.77;;
23159;SDS011;11748;50.844;4.396;2024-03-29T13:08:01;1.10;;;0.60;;
23159;SDS011;11748;50.844;4.396;2024-03-29T13:10:29;1.77;;;0.70;;
23159;SDS011;11748;50.844;4.396;2024-03-29T13:12:56;4.53;;;0.80;;
23159;SDS011;11748;50.844;4.396;2024-03-29T13:15:22;2.28;;;0.85;;
23159;SDS011;11748;50.844;4.396;2024-03-29T13:17:52;2.80;;;0.85;;
23159;SDS011;11748;50.844;4.396;2024-03-29T13:20:18;1.65;;;0.70;;
23159;SDS011;11748;50.844;4.396;2024-03-29T13:22:45;1.45;;;0.73;;
23159;SDS011;11748;50.844;4.396;2024-03-29T13:25:13;1.23;;;0.70;;
23159;SDS011;11748;50.844;4.396;2024-03-29T13:27:39;2.97;;;1.02;;
23159;SDS011;11748;50.844;4.396;2024-03-29T13:30:06;4.28;;;1.60;;
23159;SDS011;11748;50.844;4.396;2024-03-29T13:32:37;2.13;;;1.23;;
23159;SDS011;11748;50.844;4.396;2024-03-29T13:35:07;1.30;;;0.80;;
23159;SDS011;11748;50.844;4.396;2024-03-29T13:37:44;1.77;;;0.90;;
23159;SDS011;11748;50.844;4.396;2024-03-29T13:40:14;2.40;;;1.05;;
23159;SDS011;11748;50.844;4.396;2024-03-29T13:42:40;4.32;;;1.17;;
23159;SDS011;11748;50.844;4.396;2024-03-29T13:45:07;2.47;;;1.00;;
23159;SDS011;11748;50.844;4.396;2024-03-29T13:47:36;2.55;;;0.57;;
23159;SDS011;11748;50.844;4.396;2024-03-29T13:50:02;2.03;;;0.60;;
23159;SDS011;11748;50.844;4.396;2024-03-29T13:52:29;2.72;;;0.60;;
23159;SDS011;11748;50.844;4.396;2024-03-29T13:54:55;3.38;;;0.60;;
23159;SDS011;11748;50.844;4.396;2024-03-29T13:57:21;0.52;;;0.35;;
23159;SDS011;11748;50.844;4.396;2024-03-29T13:59:47;1.60;;;0.65;;
23159;SDS011;11748;50.844;4.396;2024-03-29T14:02:13;0.50;;;0.40;;
23159;SDS011;11748;50.844;4.396;2024-03-29T14:04:41;1.27;;;0.50;;
23159;SDS011;11748;50.844;4.396;2024-03-29T14:07:08;2.78;;;0.65;;
23159;SDS011;11748;50.844;4.396;2024-03-29T14:09:36;1.33;;;0.52;;
23159;SDS011;11748;50.844;4.396;2024-03-29T14:12:02;0.57;;;0.40;;
23159;SDS011;11748;50.844;4.396;2024-03-29T14:14:29;5.82;;;1.20;;
23159;SDS011;11748;50.844;4.396;2024-03-29T14:16:55;1.52;;;0.80;;
23159;SDS011;11748;50.844;4.396;2024-03-29T14:19:21;2.88;;;0.82;;
23159;SDS011;11748;50.844;4.396;2024-03-29T14:21:46;1.30;;;0.47;;
23159;SDS011;11748;50.844;4.396;2024-03-29T14:24:12;1.88;;;0.77;;
23159;SDS011;11748;50.844;4.396;2024-03-29T14:26:38;1.45;;;0.70;;
23159;SDS011;11748;50.844;4.396;2024-03-29T14:29:04;1.83;;;0.90;;
23159;SDS011;11748;50.844;4.396;2024-03-29T14:31:33;3.22;;;0.90;;
23159;SDS011;11748;50.844;4.396;2024-03-29T14:33:59;2.15;;;1.00;;
23159;SDS011;11748;50.844;4.396;2024-03-29T14:36:25;1.23;;;0.70;;
23159;SDS011;11748;50.844;4.396;2024-03-29T14:38:51;2.97;;;1.10;;
23159;SDS011;11748;50.844;4.396;2024-03-29T14:41:18;2.72;;;1.50;;
23159;SDS011;11748;50.844;4.396;2024-03-29T14:43:44;5.05;;;1.23;;
23159;SDS011;11748;50.844;4.396;2024-03-29T14:46:11;3.38;;;1.10;;
23159;SDS011;11748;50.844;4.396;2024-03-29T14:48:37;1.83;;;1.17;;
23159;SDS011;11748;50.844;4.396;2024-03-29T14:51:03;2.55;;;1.20;;
23159;SDS011;11748;50.844;4.396;2024-03-29T14:53:30;1.73;;;1.10;;